createdAt,value
2017-06-01T00:00:23.809Z,0
2017-06-01T00:01:04.286Z,0
2017-06-01T00:01:44.796Z,0
2017-06-01T00:02:25.253Z,0
2017-06-01T00:03:05.756Z,0
2017-06-01T00:03:46.250Z,0
2017-06-01T00:04:26.717Z,0
2017-06-01T00:05:07.210Z,0
2017-06-01T00:05:47.727Z,0
2017-06-01T00:06:28.215Z,0
2017-06-01T00:07:08.696Z,0
2017-06-01T00:07:49.175Z,0
2017-06-01T00:08:29.656Z,0
2017-06-01T00:09:10.136Z,0
2017-06-01T00:09:50.640Z,0
2017-06-01T00:10:31.154Z,0
2017-06-01T00:11:11.641Z,0
2017-06-01T00:11:52.102Z,0
2017-06-01T00:12:32.606Z,0
2017-06-01T00:13:13.060Z,0
2017-06-01T00:13:53.574Z,0
2017-06-01T00:14:34.057Z,0
2017-06-01T00:15:14.516Z,0
2017-06-01T00:15:54.986Z,0
2017-06-01T00:16:35.474Z,0
2017-06-01T00:17:15.993Z,0
2017-06-01T00:17:56.455Z,0
2017-06-01T00:18:36.934Z,0
2017-06-01T00:19:17.400Z,0
2017-06-01T00:19:57.887Z,0
2017-06-01T00:20:38.404Z,0
2017-06-01T00:21:18.885Z,0
2017-06-01T00:21:59.400Z,0
2017-06-01T00:22:39.879Z,0
2017-06-01T00:23:20.347Z,0
2017-06-01T00:24:00.871Z,0
2017-06-01T00:24:41.390Z,0
2017-06-01T00:25:21.866Z,0
2017-06-01T00:26:02.344Z,0
2017-06-01T00:26:42.844Z,0
2017-06-01T00:27:23.362Z,0
2017-06-01T00:28:03.833Z,0
2017-06-01T00:28:44.319Z,0
2017-06-01T00:29:24.807Z,0
2017-06-01T00:30:05.273Z,0
2017-06-01T00:30:45.762Z,0
2017-06-01T00:31:26.269Z,0
2017-06-01T00:32:06.747Z,0
2017-06-01T00:32:47.245Z,0
2017-06-01T00:33:27.726Z,0
2017-06-01T00:34:08.238Z,0
2017-06-01T00:34:48.737Z,0
2017-06-01T00:35:29.249Z,0
2017-06-01T00:36:09.719Z,0
2017-06-01T00:36:50.231Z,0
2017-06-01T00:37:30.733Z,0
2017-06-01T00:38:11.235Z,0
2017-06-01T00:38:51.688Z,0
2017-06-01T00:39:32.284Z,0
2017-06-01T00:40:12.696Z,0
2017-06-01T00:40:53.144Z,0
2017-06-01T00:41:33.653Z,0
2017-06-01T00:42:14.118Z,0
2017-06-01T00:42:54.628Z,0
2017-06-01T00:43:35.164Z,0
2017-06-01T00:44:15.655Z,0
2017-06-01T00:44:56.182Z,0
2017-06-01T00:45:36.680Z,0
2017-06-01T00:46:17.149Z,0
2017-06-01T00:46:57.621Z,0
2017-06-01T00:47:38.125Z,0
2017-06-01T00:48:18.580Z,0
2017-06-01T00:48:59.065Z,0
2017-06-01T00:49:39.516Z,0
2017-06-01T00:50:19.993Z,0
2017-06-01T00:51:00.475Z,0
2017-06-01T00:51:40.985Z,0
2017-06-01T00:52:21.511Z,0
2017-06-01T00:53:01.963Z,0
2017-06-01T00:53:42.501Z,0
2017-06-01T00:54:23.006Z,0
2017-06-01T00:55:03.483Z,0
2017-06-01T00:55:43.976Z,0
2017-06-01T00:56:24.446Z,0
2017-06-01T00:57:04.936Z,0
2017-06-01T00:57:45.407Z,0
2017-06-01T00:58:25.886Z,0
2017-06-01T00:59:06.374Z,0
2017-06-01T00:59:46.827Z,0
2017-06-01T01:00:27.343Z,0
2017-06-01T01:01:07.788Z,0
2017-06-01T01:01:48.266Z,0
2017-06-01T01:02:28.732Z,0
2017-06-01T01:03:09.229Z,0
2017-06-01T01:03:49.732Z,0
2017-06-01T01:04:30.223Z,0
2017-06-01T01:05:10.699Z,0
2017-06-01T01:05:51.180Z,0
2017-06-01T01:06:31.688Z,0
2017-06-01T01:07:12.169Z,0
2017-06-01T01:07:52.677Z,0
2017-06-01T01:08:33.131Z,0
2017-06-01T01:09:13.629Z,0
2017-06-01T01:09:54.060Z,0
2017-06-01T01:10:34.544Z,0
2017-06-01T01:11:15.057Z,0
2017-06-01T01:11:55.566Z,0
2017-06-01T01:12:36.053Z,0
2017-06-01T01:13:16.539Z,0
2017-06-01T01:13:57.046Z,0
2017-06-01T01:14:37.537Z,0
2017-06-01T01:17:16.265Z,0
2017-06-01T01:17:56.675Z,0
2017-06-01T01:18:37.146Z,0
2017-06-01T01:19:17.633Z,0
2017-06-01T01:19:58.132Z,0
2017-06-01T01:20:38.585Z,0
2017-06-01T01:21:19.070Z,0
2017-06-01T01:21:59.542Z,0
2017-06-01T01:22:40.029Z,0
2017-06-01T01:23:20.509Z,0
2017-06-01T01:24:01.018Z,0
2017-06-01T01:24:41.523Z,0
2017-06-01T01:25:22.015Z,0
2017-06-01T01:26:02.498Z,0
2017-06-01T01:26:42.971Z,0
2017-06-01T01:27:23.445Z,0
2017-06-01T01:28:03.932Z,0
2017-06-01T01:28:44.473Z,0
2017-06-01T01:29:24.974Z,0
2017-06-01T01:30:05.435Z,0
2017-06-01T01:30:45.912Z,0
2017-06-01T01:31:26.394Z,0
2017-06-01T01:32:06.884Z,0
2017-06-01T01:32:47.353Z,0
2017-06-01T01:33:27.822Z,0
2017-06-01T01:34:08.312Z,0
2017-06-01T01:34:48.808Z,0
2017-06-01T01:35:29.281Z,0
2017-06-01T01:36:09.789Z,0
2017-06-01T01:36:50.257Z,0
2017-06-01T01:37:30.762Z,0
2017-06-01T01:38:11.251Z,0
2017-06-01T01:38:51.735Z,0
2017-06-01T01:39:32.366Z,0
2017-06-01T01:40:12.925Z,0
2017-06-01T01:40:53.417Z,0
2017-06-01T01:41:33.922Z,0
2017-06-01T01:42:14.379Z,0
2017-06-01T01:42:54.873Z,0
2017-06-01T01:43:35.361Z,0
2017-06-01T01:44:15.817Z,0
2017-06-01T01:44:56.304Z,0
2017-06-01T01:45:36.780Z,0
2017-06-01T01:46:17.235Z,0
2017-06-01T01:46:57.720Z,0
2017-06-01T01:47:38.205Z,0
2017-06-01T01:48:18.694Z,0
2017-06-01T01:48:59.163Z,0
2017-06-01T01:49:39.647Z,0
2017-06-01T01:50:20.158Z,0
2017-06-01T01:51:00.610Z,0
2017-06-01T01:51:41.104Z,0
2017-06-01T01:52:21.679Z,0
2017-06-01T01:53:02.134Z,0
2017-06-01T01:53:42.644Z,0
2017-06-01T01:54:23.128Z,0
2017-06-01T01:55:03.611Z,0
2017-06-01T01:55:44.150Z,0
2017-06-01T01:56:24.604Z,0
2017-06-01T01:57:05.072Z,0
2017-06-01T01:57:45.577Z,0
2017-06-01T01:58:26.051Z,0
2017-06-01T01:59:06.556Z,0
2017-06-01T01:59:47.021Z,0
2017-06-01T02:00:27.512Z,0
2017-06-01T02:01:08.023Z,0
2017-06-01T02:01:48.504Z,0
2017-06-01T02:02:29.003Z,0
2017-06-01T02:03:09.475Z,0
2017-06-01T02:03:49.917Z,0
2017-06-01T02:04:30.382Z,0
2017-06-01T02:05:10.854Z,0
2017-06-01T02:05:51.340Z,0
2017-06-01T02:06:31.848Z,0
2017-06-01T02:07:12.299Z,0
2017-06-01T02:07:52.806Z,0
2017-06-01T02:08:33.261Z,0
2017-06-01T02:09:13.755Z,0
2017-06-01T02:09:54.230Z,0
2017-06-01T02:10:34.713Z,0
2017-06-01T02:11:15.159Z,0
2017-06-01T02:11:55.620Z,0
2017-06-01T02:12:36.146Z,0
2017-06-01T02:13:16.624Z,0
2017-06-01T02:13:57.110Z,0
2017-06-01T02:14:37.564Z,0
2017-06-01T02:15:18.051Z,0
2017-06-01T02:15:58.527Z,0
2017-06-01T02:16:39.005Z,0
2017-06-01T02:17:19.470Z,0
2017-06-01T02:17:59.941Z,0
2017-06-01T02:18:40.445Z,0
2017-06-01T02:19:20.912Z,0
2017-06-01T02:20:01.419Z,0
2017-06-01T02:20:41.895Z,0
2017-06-01T02:21:22.343Z,0
2017-06-01T02:22:02.827Z,0
2017-06-01T02:22:43.288Z,0
2017-06-01T02:23:23.770Z,0
2017-06-01T02:24:04.242Z,0
2017-06-01T02:24:44.732Z,0
2017-06-01T02:25:25.215Z,0
2017-06-01T02:26:05.785Z,0
2017-06-01T02:26:46.211Z,0
2017-06-01T02:27:26.699Z,0
2017-06-01T02:28:07.211Z,0
2017-06-01T02:28:47.692Z,0
2017-06-01T02:29:28.161Z,0
2017-06-01T02:30:08.660Z,0
2017-06-01T02:30:49.124Z,0
2017-06-01T02:31:29.609Z,0
2017-06-01T02:32:10.054Z,0
2017-06-01T02:32:50.535Z,0
2017-06-01T02:33:31.048Z,0
2017-06-01T02:34:11.557Z,0
2017-06-01T02:34:52.010Z,0
2017-06-01T02:35:32.517Z,0
2017-06-01T02:36:13.026Z,0
2017-06-01T02:36:53.523Z,0
2017-06-01T02:37:34.001Z,0
2017-06-01T02:38:14.484Z,0
2017-06-01T02:38:54.994Z,0
2017-06-01T02:39:35.457Z,0
2017-06-01T02:40:15.960Z,0
2017-06-01T02:40:56.452Z,0
2017-06-01T02:41:36.953Z,0
2017-06-01T02:42:17.431Z,0
2017-06-01T02:42:57.918Z,0
2017-06-01T02:43:38.409Z,0
2017-06-01T02:44:18.894Z,0
2017-06-01T02:44:59.347Z,0
2017-06-01T02:45:39.847Z,0
2017-06-01T02:46:20.335Z,0
2017-06-01T02:47:00.802Z,5
2017-06-01T02:47:41.321Z,5
2017-06-01T02:48:21.782Z,5
2017-06-01T02:49:02.344Z,5
2017-06-01T02:49:42.838Z,5
2017-06-01T02:50:23.297Z,5
2017-06-01T02:51:03.790Z,5
2017-06-01T02:51:44.263Z,5
2017-06-01T02:52:24.748Z,5
2017-06-01T02:53:05.202Z,5
2017-06-01T02:53:45.730Z,5
2017-06-01T02:54:26.216Z,5
2017-06-01T02:55:06.748Z,5
2017-06-01T02:55:47.221Z,5
2017-06-01T02:56:27.710Z,5
2017-06-01T02:57:08.230Z,5
2017-06-01T02:57:48.713Z,5
2017-06-01T02:58:29.222Z,10
2017-06-01T02:59:09.677Z,10
2017-06-01T02:59:50.170Z,10
2017-06-01T03:00:30.612Z,10
2017-06-01T03:01:11.085Z,10
2017-06-01T03:01:51.573Z,10
2017-06-01T03:02:32.076Z,10
2017-06-01T03:03:12.541Z,10
2017-06-01T03:03:53.008Z,10
2017-06-01T03:04:33.499Z,10
2017-06-01T03:05:14.006Z,10
2017-06-01T03:05:54.481Z,10
2017-06-01T03:06:34.965Z,10
2017-06-01T03:07:15.473Z,10
2017-06-01T03:07:55.960Z,10
2017-06-01T03:08:36.458Z,10
2017-06-01T03:09:16.921Z,10
2017-06-01T03:09:57.413Z,10
2017-06-01T03:10:37.877Z,10
2017-06-01T03:11:18.380Z,10
2017-06-01T03:11:58.853Z,15
2017-06-01T03:12:39.339Z,15
2017-06-01T03:13:19.854Z,15
2017-06-01T03:14:00.318Z,15
2017-06-01T03:14:40.798Z,20
2017-06-01T03:15:21.286Z,20
2017-06-01T03:16:01.778Z,20
2017-06-01T03:16:42.259Z,25
2017-06-01T03:17:22.750Z,25
2017-06-01T03:18:03.243Z,25
2017-06-01T03:18:43.761Z,25
2017-06-01T03:19:24.228Z,30
2017-06-01T03:20:04.730Z,30
2017-06-01T03:20:45.207Z,30
2017-06-01T03:21:25.702Z,30
2017-06-01T03:22:06.199Z,30
2017-06-01T03:22:46.704Z,30
2017-06-01T03:23:27.231Z,30
2017-06-01T03:24:07.722Z,35
2017-06-01T03:24:48.214Z,35
2017-06-01T03:25:28.710Z,35
2017-06-01T03:26:09.202Z,35
2017-06-01T03:26:49.684Z,35
2017-06-01T03:27:30.180Z,35
2017-06-01T03:28:10.657Z,35
2017-06-01T03:28:51.175Z,35
2017-06-01T03:29:31.678Z,35
2017-06-01T03:30:12.213Z,35
2017-06-01T03:30:52.675Z,40
2017-06-01T03:31:33.164Z,40
2017-06-01T03:32:13.621Z,40
2017-06-01T03:32:54.122Z,45
2017-06-01T03:33:34.588Z,45
2017-06-01T03:34:15.101Z,45
2017-06-01T03:34:55.544Z,45
2017-06-01T03:35:36.003Z,50
2017-06-01T03:36:16.486Z,50
2017-06-01T03:36:56.992Z,45
2017-06-01T03:37:37.470Z,45
2017-06-01T03:38:17.966Z,45
2017-06-01T03:38:58.437Z,45
2017-06-01T03:39:38.915Z,50
2017-06-01T03:40:19.403Z,50
2017-06-01T03:40:59.895Z,50
2017-06-01T03:41:40.375Z,50
2017-06-01T03:42:20.850Z,50
2017-06-01T03:43:01.383Z,55
2017-06-01T03:43:41.864Z,55
2017-06-01T03:44:22.352Z,55
2017-06-01T03:45:02.833Z,55
2017-06-01T03:45:43.280Z,55
2017-06-01T03:46:23.787Z,55
2017-06-01T03:47:04.316Z,60
2017-06-01T03:47:44.809Z,60
2017-06-01T03:48:25.334Z,65
2017-06-01T03:49:05.821Z,70
2017-06-01T03:49:46.334Z,65
2017-06-01T03:50:26.846Z,65
2017-06-01T03:51:07.315Z,65
2017-06-01T03:51:47.833Z,65
2017-06-01T03:52:28.286Z,70
2017-06-01T03:53:08.804Z,65
2017-06-01T03:53:49.276Z,65
2017-06-01T03:54:29.745Z,70
2017-06-01T03:55:10.255Z,70
2017-06-01T03:55:50.743Z,70
2017-06-01T03:56:31.259Z,70
2017-06-01T03:57:11.728Z,70
2017-06-01T03:57:52.220Z,70
2017-06-01T03:58:32.709Z,75
2017-06-01T03:59:13.169Z,75
2017-06-01T03:59:53.640Z,75
2017-06-01T04:00:34.119Z,80
2017-06-01T04:01:14.664Z,80
2017-06-01T04:01:55.068Z,80
2017-06-01T04:02:35.567Z,80
2017-06-01T04:03:16.026Z,85
2017-06-01T04:05:54.632Z,85
2017-06-01T04:06:35.080Z,85
2017-06-01T04:07:15.576Z,90
2017-06-01T04:07:56.148Z,90
2017-06-01T04:08:36.604Z,90
2017-06-01T04:09:17.117Z,90
2017-06-01T04:09:57.598Z,85
2017-06-01T04:10:38.110Z,90
2017-06-01T04:11:18.593Z,85
2017-06-01T04:11:59.102Z,90
2017-06-01T04:12:39.559Z,90
2017-06-01T04:13:20.064Z,90
2017-06-01T04:14:00.514Z,90
2017-06-01T04:14:41.014Z,95
2017-06-01T04:15:21.537Z,95
2017-06-01T04:16:01.998Z,95
2017-06-01T04:16:42.458Z,90
2017-06-01T04:17:22.958Z,90
2017-06-01T04:18:03.454Z,90
2017-06-01T04:18:43.919Z,90
2017-06-01T04:19:24.390Z,95
2017-06-01T04:20:04.897Z,95
2017-06-01T04:20:45.384Z,95
2017-06-01T04:21:25.912Z,100
2017-06-01T04:22:06.376Z,95
2017-06-01T04:22:46.864Z,100
2017-06-01T04:23:27.428Z,100
2017-06-01T04:24:08.067Z,105
2017-06-01T04:24:48.576Z,105
2017-06-01T04:25:29.068Z,105
2017-06-01T04:26:09.600Z,105
2017-06-01T04:26:50.084Z,105
2017-06-01T04:27:30.638Z,105
2017-06-01T04:28:11.099Z,105
2017-06-01T04:28:51.956Z,105
2017-06-01T04:29:32.584Z,100
2017-06-01T04:30:13.104Z,100
2017-06-01T04:30:53.687Z,100
2017-06-01T04:31:34.130Z,100
2017-06-01T04:32:14.640Z,100
2017-06-01T04:32:55.119Z,100
2017-06-01T04:33:35.752Z,100
2017-06-01T04:34:16.230Z,105
2017-06-01T04:34:56.686Z,105
2017-06-01T04:35:37.163Z,105
2017-06-01T04:36:17.642Z,110
2017-06-01T04:36:58.110Z,100
2017-06-01T04:37:38.935Z,105
2017-06-01T04:38:19.485Z,100
2017-06-01T04:39:00.009Z,105
2017-06-01T04:39:40.508Z,100
2017-06-01T04:40:20.982Z,105
2017-06-01T04:41:01.475Z,105
2017-06-01T04:41:41.952Z,105
2017-06-01T04:42:22.471Z,105
2017-06-01T04:43:02.996Z,105
2017-06-01T04:43:43.479Z,105
2017-06-01T04:44:24.004Z,110
2017-06-01T04:45:04.525Z,110
2017-06-01T04:45:45.010Z,110
2017-06-01T04:46:25.535Z,110
2017-06-01T04:47:05.988Z,110
2017-06-01T04:47:46.496Z,115
2017-06-01T04:48:26.969Z,115
2017-06-01T04:49:07.549Z,115
2017-06-01T04:49:48.195Z,115
2017-06-01T04:50:28.832Z,120
2017-06-01T04:51:09.471Z,120
2017-06-01T04:51:50.142Z,125
2017-06-01T04:52:30.778Z,130
2017-06-01T04:53:11.488Z,130
2017-06-01T04:53:52.001Z,125
2017-06-01T04:54:32.507Z,125
2017-06-01T04:55:13.095Z,125
2017-06-01T04:55:53.771Z,125
2017-06-01T04:56:34.273Z,130
2017-06-01T04:57:14.757Z,130
2017-06-01T04:57:55.393Z,135
2017-06-01T04:58:36.039Z,130
2017-06-01T04:59:16.606Z,130
2017-06-01T04:59:57.111Z,130
2017-06-01T05:00:37.615Z,130
2017-06-01T05:01:18.094Z,135
2017-06-01T05:01:58.585Z,135
2017-06-01T05:02:39.061Z,130
2017-06-01T05:03:19.548Z,125
2017-06-01T05:04:00.041Z,120
2017-06-01T05:04:40.534Z,125
2017-06-01T05:05:21.112Z,135
2017-06-01T05:06:01.647Z,145
2017-06-01T05:06:42.186Z,140
2017-06-01T05:07:22.646Z,135
2017-06-01T05:08:03.114Z,130
2017-06-01T05:08:43.602Z,125
2017-06-01T05:09:24.093Z,125
2017-06-01T05:11:42.451Z,120
2017-06-01T05:12:22.855Z,115
2017-06-01T05:13:03.346Z,115
2017-06-01T05:13:43.843Z,120
2017-06-01T05:14:24.316Z,115
2017-06-01T05:15:04.817Z,110
2017-06-01T05:15:45.301Z,105
2017-06-01T05:16:25.770Z,110
2017-06-01T05:17:06.344Z,115
2017-06-01T05:17:46.717Z,115
2017-06-01T05:18:27.209Z,115
2017-06-01T05:19:07.789Z,120
2017-06-01T05:19:48.240Z,130
2017-06-01T05:20:28.745Z,140
2017-06-01T05:21:09.224Z,145
2017-06-01T05:21:49.699Z,135
2017-06-01T05:22:30.184Z,120
2017-06-01T05:23:10.674Z,115
2017-06-01T05:23:51.161Z,115
2017-06-01T05:24:31.650Z,120
2017-06-01T05:25:12.152Z,125
2017-06-01T05:25:52.624Z,130
2017-06-01T05:26:33.104Z,125
2017-06-01T05:27:13.587Z,120
2017-06-01T05:27:54.115Z,125
2017-06-01T05:28:34.554Z,125
2017-06-01T05:29:15.050Z,135
2017-06-01T05:29:55.520Z,140
2017-06-01T05:30:36.003Z,145
2017-06-01T05:31:16.462Z,150
2017-06-01T05:31:57.000Z,150
2017-06-01T05:32:37.462Z,150
2017-06-01T05:33:17.973Z,155
2017-06-01T05:33:58.454Z,160
2017-06-01T05:34:38.932Z,165
2017-06-01T05:35:19.428Z,160
2017-06-01T05:35:59.930Z,170
2017-06-01T05:36:40.428Z,170
2017-06-01T05:37:20.901Z,170
2017-06-01T05:38:01.390Z,180
2017-06-01T05:38:41.926Z,180
2017-06-01T05:39:22.373Z,185
2017-06-01T05:40:02.855Z,195
2017-06-01T05:40:43.308Z,195
2017-06-01T05:41:23.800Z,195
2017-06-01T05:42:04.311Z,190
2017-06-01T05:42:44.765Z,200
2017-06-01T05:43:25.225Z,195
2017-06-01T05:44:05.738Z,190
2017-06-01T05:44:46.231Z,210
2017-06-01T05:45:26.734Z,215
2017-06-01T05:46:07.220Z,215
2017-06-01T05:46:47.755Z,210
2017-06-01T05:47:28.243Z,220
2017-06-01T05:48:08.733Z,225
2017-06-01T05:48:49.306Z,230
2017-06-01T05:49:29.816Z,225
2017-06-01T05:50:10.310Z,225
2017-06-01T05:50:50.796Z,220
2017-06-01T05:51:31.264Z,215
2017-06-01T05:52:11.750Z,225
2017-06-01T05:52:52.230Z,230
2017-06-01T05:53:32.734Z,230
2017-06-01T05:54:13.225Z,230
2017-06-01T05:54:53.797Z,230
2017-06-01T05:55:34.280Z,225
2017-06-01T05:56:14.876Z,220
2017-06-01T05:56:55.411Z,225
2017-06-01T05:57:35.877Z,230
2017-06-01T05:58:16.409Z,230
2017-06-01T05:58:56.887Z,225
2017-06-01T05:59:37.404Z,215
2017-06-01T06:00:17.875Z,220
2017-06-01T06:00:58.360Z,230
2017-06-01T06:01:38.887Z,220
2017-06-01T06:02:19.435Z,215
2017-06-01T06:02:59.951Z,220
2017-06-01T06:03:40.426Z,220
2017-06-01T06:04:20.880Z,215
2017-06-01T06:05:01.343Z,230
2017-06-01T06:05:41.876Z,230
2017-06-01T06:06:22.412Z,225
2017-06-01T06:07:02.899Z,220
2017-06-01T06:07:43.434Z,220
2017-06-01T06:08:23.940Z,220
2017-06-01T06:09:04.414Z,220
2017-06-01T06:09:44.910Z,220
2017-06-01T06:10:25.394Z,215
2017-06-01T06:11:05.869Z,220
2017-06-01T06:11:46.478Z,220
2017-06-01T06:12:26.953Z,220
2017-06-01T06:13:07.442Z,200
2017-06-01T06:13:47.924Z,205
2017-06-01T06:14:28.420Z,235
2017-06-01T06:15:08.870Z,235
2017-06-01T06:15:49.366Z,225
2017-06-01T06:16:29.930Z,195
2017-06-01T06:17:10.438Z,190
2017-06-01T06:17:50.966Z,195
2017-06-01T06:18:31.501Z,205
2017-06-01T06:19:11.995Z,225
2017-06-01T06:19:52.510Z,240
2017-06-01T06:20:33.010Z,255
2017-06-01T06:21:13.519Z,265
2017-06-01T06:21:53.981Z,265
2017-06-01T06:22:34.462Z,255
2017-06-01T06:23:14.959Z,255
2017-06-01T06:23:55.435Z,260
2017-06-01T06:24:35.978Z,270
2017-06-01T06:25:16.511Z,260
2017-06-01T06:25:57.146Z,265
2017-06-01T06:26:37.759Z,290
2017-06-01T06:27:18.494Z,300
2017-06-01T06:27:59.317Z,290
2017-06-01T06:28:40.130Z,290
2017-06-01T06:29:20.652Z,290
2017-06-01T06:30:01.109Z,280
2017-06-01T06:30:41.663Z,290
2017-06-01T06:31:22.134Z,285
2017-06-01T06:32:02.639Z,270
2017-06-01T06:32:43.115Z,270
2017-06-01T06:33:23.581Z,270
2017-06-01T06:34:04.073Z,275
2017-06-01T06:34:44.543Z,285
2017-06-01T06:35:25.025Z,275
2017-06-01T06:36:05.541Z,285
2017-06-01T06:36:46.019Z,290
2017-06-01T06:37:26.519Z,295
2017-06-01T06:38:07.035Z,305
2017-06-01T06:38:47.515Z,310
2017-06-01T06:39:28.015Z,310
2017-06-01T06:40:08.522Z,310
2017-06-01T06:40:48.972Z,310
2017-06-01T06:41:29.491Z,315
2017-06-01T06:42:10.001Z,320
2017-06-01T06:42:50.482Z,320
2017-06-01T06:43:30.944Z,320
2017-06-01T06:44:11.459Z,325
2017-06-01T06:44:51.913Z,325
2017-06-01T06:45:32.445Z,325
2017-06-01T06:46:12.952Z,325
2017-06-01T06:46:53.421Z,330
2017-06-01T06:47:33.959Z,330
2017-06-01T06:48:14.451Z,335
2017-06-01T06:48:54.900Z,345
2017-06-01T06:49:35.430Z,350
2017-06-01T06:50:15.894Z,350
2017-06-01T06:50:56.508Z,350
2017-06-01T06:51:37.030Z,350
2017-06-01T06:52:17.586Z,345
2017-06-01T06:52:58.080Z,355
2017-06-01T06:53:38.661Z,355
2017-06-01T06:54:19.191Z,350
2017-06-01T06:54:59.904Z,350
2017-06-01T06:55:40.385Z,345
2017-06-01T06:56:20.925Z,340
2017-06-01T06:57:01.431Z,340
2017-06-01T06:57:42.095Z,340
2017-06-01T06:58:22.614Z,340
2017-06-01T06:59:03.195Z,335
2017-06-01T06:59:43.689Z,320
2017-06-01T07:00:24.244Z,315
2017-06-01T07:01:04.857Z,320
2017-06-01T07:01:45.494Z,315
2017-06-01T07:02:26.065Z,325
2017-06-01T07:03:06.626Z,345
2017-06-01T07:03:47.167Z,355
2017-06-01T07:04:27.874Z,350
2017-06-01T07:05:08.514Z,345
2017-06-01T07:05:49.302Z,340
2017-06-01T07:06:30.163Z,330
2017-06-01T07:07:11.034Z,330
2017-06-01T07:07:51.822Z,335
2017-06-01T07:08:32.763Z,335
2017-06-01T07:09:13.546Z,330
2017-06-01T07:09:54.342Z,330
2017-06-01T07:10:35.635Z,320
2017-06-01T07:11:16.108Z,315
2017-06-01T07:11:56.820Z,320
2017-06-01T07:12:37.570Z,310
2017-06-01T07:13:18.047Z,315
2017-06-01T07:13:58.535Z,305
2017-06-01T07:14:39.089Z,300
2017-06-01T07:15:19.720Z,300
2017-06-01T07:16:13.601Z,300
2017-06-01T07:17:00.523Z,310
2017-06-01T07:19:48.638Z,350
2017-06-01T07:22:35.896Z,325
2017-06-01T07:27:05.460Z,245
2017-06-01T07:27:54.022Z,235
2017-06-01T07:28:36.858Z,235
2017-06-01T07:29:17.342Z,250
2017-06-01T07:29:58.493Z,250
2017-06-01T07:30:39.112Z,255
2017-06-01T07:31:19.676Z,260
2017-06-01T07:32:00.203Z,270
2017-06-01T07:32:40.914Z,290
2017-06-01T07:33:21.403Z,280
2017-06-01T07:34:01.921Z,270
2017-06-01T07:34:42.419Z,305
2017-06-01T07:35:22.916Z,345
2017-06-01T07:36:03.431Z,380
2017-06-01T07:36:43.952Z,400
2017-06-01T07:37:24.421Z,415
2017-06-01T07:38:04.949Z,400
2017-06-01T07:38:45.486Z,320
2017-06-01T07:39:25.960Z,290
2017-06-01T07:40:06.481Z,285
2017-06-01T07:40:47.116Z,295
2017-06-01T07:41:27.660Z,305
2017-06-01T07:42:08.114Z,310
2017-06-01T07:44:39.054Z,280
2017-06-01T07:45:19.512Z,240
2017-06-01T07:46:00.028Z,230
2017-06-01T07:46:40.513Z,245
2017-06-01T07:47:21.072Z,255
2017-06-01T07:48:01.493Z,285
2017-06-01T07:48:41.980Z,305
2017-06-01T07:49:22.457Z,350
2017-06-01T07:50:02.991Z,385
2017-06-01T07:50:43.998Z,390
2017-06-01T07:51:24.482Z,410
2017-06-01T07:52:04.968Z,365
2017-06-01T07:52:45.492Z,350
2017-06-01T07:53:25.947Z,320
2017-06-01T07:54:06.417Z,290
2017-06-01T07:54:46.906Z,275
2017-06-01T07:55:27.451Z,265
2017-06-01T07:56:07.885Z,270
2017-06-01T07:56:48.394Z,255
2017-06-01T07:57:28.910Z,275
2017-06-01T07:58:09.395Z,320
2017-06-01T07:58:49.911Z,330
2017-06-01T07:59:30.381Z,360
2017-06-01T08:00:10.901Z,365
2017-06-01T08:00:51.392Z,360
2017-06-01T08:01:31.889Z,330
2017-06-01T08:02:12.412Z,275
2017-06-01T08:02:52.879Z,255
2017-06-01T08:03:33.349Z,270
2017-06-01T08:04:13.890Z,270
2017-06-01T08:04:56.659Z,275
2017-06-01T08:05:47.794Z,275
2017-06-01T08:06:35.507Z,290
2017-06-01T08:07:15.929Z,255
2017-06-01T08:07:56.401Z,235
2017-06-01T08:08:36.944Z,225
2017-06-01T08:09:17.443Z,230
2017-06-01T08:09:57.935Z,240
2017-06-01T08:10:39.048Z,230
2017-06-01T08:11:30.637Z,245
2017-06-01T08:12:12.507Z,295
2017-06-01T08:12:55.312Z,330
2017-06-01T08:13:36.458Z,400
2017-06-01T08:14:16.986Z,400
2017-06-01T08:14:57.473Z,350
2017-06-01T08:15:38.029Z,270
2017-06-01T08:16:18.518Z,220
2017-06-01T08:17:00.462Z,230
2017-06-01T08:17:41.616Z,270
2017-06-01T08:18:27.647Z,285
2017-06-01T08:19:10.836Z,245
2017-06-01T08:19:51.334Z,245
2017-06-01T08:20:32.823Z,255
2017-06-01T08:21:13.347Z,270
2017-06-01T08:21:53.869Z,260
2017-06-01T08:24:34.395Z,210
2017-06-01T08:25:14.826Z,235
2017-06-01T08:25:55.301Z,290
2017-06-01T08:26:35.774Z,320
2017-06-01T08:27:17.736Z,305
2017-06-01T08:27:57.565Z,285
2017-06-01T08:28:38.089Z,275
2017-06-01T08:29:18.585Z,280
2017-06-01T08:29:59.087Z,285
2017-06-01T08:30:39.567Z,305
2017-06-01T08:31:20.065Z,305
2017-06-01T08:32:00.514Z,300
2017-06-01T08:32:41.015Z,245
2017-06-01T08:33:21.509Z,220
2017-06-01T08:34:02.183Z,220
2017-06-01T08:34:43.739Z,225
2017-06-01T08:35:24.391Z,230
2017-06-01T08:36:04.925Z,245
2017-06-01T08:36:45.634Z,285
2017-06-01T08:37:26.136Z,330
2017-06-01T08:38:06.598Z,345
2017-06-01T08:38:48.351Z,330
2017-06-01T08:39:29.243Z,280
2017-06-01T08:40:09.868Z,230
2017-06-01T08:40:50.747Z,240
2017-06-01T08:41:31.598Z,285
2017-06-01T08:42:12.164Z,365
2017-06-01T08:42:53.117Z,415
2017-06-01T08:43:33.935Z,460
2017-06-01T08:44:14.925Z,465
2017-06-01T08:44:55.834Z,410
2017-06-01T08:45:36.523Z,380
2017-06-01T08:46:17.356Z,335
2017-06-01T08:46:58.478Z,285
2017-06-01T08:47:39.128Z,300
2017-06-01T08:48:19.930Z,305
2017-06-01T08:49:00.935Z,330
2017-06-01T08:49:42.061Z,435
2017-06-01T08:50:22.673Z,485
2017-06-01T08:51:03.395Z,500
2017-06-01T08:51:44.208Z,500
2017-06-01T08:52:25.376Z,470
2017-06-01T08:53:06.207Z,435
2017-06-01T08:53:46.770Z,385
2017-06-01T08:54:27.885Z,420
2017-06-01T08:55:09.623Z,455
2017-06-01T08:55:50.617Z,465
2017-06-01T08:56:31.190Z,405
2017-06-01T08:57:12.010Z,340
2017-06-01T08:57:52.743Z,350
2017-06-01T08:58:33.733Z,420
2017-06-01T08:59:14.572Z,505
2017-06-01T08:59:55.378Z,505
2017-06-01T09:00:36.799Z,450
2017-06-01T09:01:17.417Z,425
2017-06-01T09:01:58.146Z,430
2017-06-01T09:02:40.998Z,490
2017-06-01T09:03:21.578Z,510
2017-06-01T09:04:02.569Z,490
2017-06-01T09:04:43.335Z,435
2017-06-01T09:05:24.721Z,410
2017-06-01T09:06:05.554Z,410
2017-06-01T09:06:46.382Z,410
2017-06-01T09:07:27.159Z,405
2017-06-01T09:08:08.014Z,425
2017-06-01T09:08:48.649Z,435
2017-06-01T09:09:29.370Z,460
2017-06-01T09:10:10.261Z,525
2017-06-01T09:10:50.970Z,505
2017-06-01T09:11:32.029Z,520
2017-06-01T09:12:12.892Z,510
2017-06-01T09:12:53.947Z,505
2017-06-01T09:13:35.175Z,485
2017-06-01T09:14:16.348Z,495
2017-06-01T09:14:57.095Z,520
2017-06-01T09:15:37.869Z,550
2017-06-01T09:16:18.850Z,525
2017-06-01T09:16:59.693Z,495
2017-06-01T09:17:41.344Z,440
2017-06-01T09:18:22.213Z,415
2017-06-01T09:19:03.038Z,450
2017-06-01T09:19:44.031Z,480
2017-06-01T09:20:24.834Z,440
2017-06-01T09:21:05.645Z,430
2017-06-01T09:21:46.695Z,460
2017-06-01T09:22:27.329Z,495
2017-06-01T09:23:08.146Z,490
2017-06-01T09:23:49.296Z,505
2017-06-01T09:24:29.963Z,465
2017-06-01T09:25:10.662Z,495
2017-06-01T09:25:51.544Z,530
2017-06-01T09:26:32.419Z,540
2017-06-01T09:27:13.225Z,510
2017-06-01T09:27:53.923Z,510
2017-06-01T09:28:34.645Z,525
2017-06-01T09:29:15.631Z,555
2017-06-01T09:29:56.255Z,530
2017-06-01T09:30:36.967Z,485
2017-06-01T09:31:18.266Z,530
2017-06-01T09:31:59.286Z,585
2017-06-01T09:32:40.074Z,575
2017-06-01T09:33:20.899Z,545
2017-06-01T09:34:02.682Z,530
2017-06-01T09:34:43.480Z,540
2017-06-01T09:35:24.062Z,535
2017-06-01T09:36:04.906Z,545
2017-06-01T09:36:45.724Z,525
2017-06-01T09:37:26.470Z,520
2017-06-01T09:38:07.266Z,525
2017-06-01T09:38:48.029Z,535
2017-06-01T09:39:28.511Z,545
2017-06-01T09:40:09.000Z,525
2017-06-01T09:40:49.477Z,460
2017-06-01T09:41:29.962Z,440
2017-06-01T09:42:10.611Z,425
2017-06-01T09:42:51.116Z,405
2017-06-01T09:43:31.588Z,390
2017-06-01T09:44:12.117Z,375
2017-06-01T09:44:52.588Z,450
2017-06-01T09:45:33.107Z,485
2017-06-01T09:46:13.615Z,485
2017-06-01T09:46:54.278Z,520
2017-06-01T09:47:34.880Z,570
2017-06-01T09:48:15.327Z,625
2017-06-01T09:48:55.912Z,595
2017-06-01T09:49:36.352Z,555
2017-06-01T09:50:16.868Z,510
2017-06-01T09:50:59.391Z,490
2017-06-01T09:51:39.924Z,585
2017-06-01T09:52:20.372Z,605